Time;durP1;ratioP1;P1;durP2;ratioP2;P2;SDS_P1;SDS_P2;PMS_P1;PMS_P2;Temp;Humidity;BMP_temperature;BMP_pressure;BME280_temperature;BME280_humidity;BME280_pressure;Samples;Min_cycle;Max_cycle;Signal;HPM_P1;HPM_P2
2023/07/25 04:13:36;;;;;;;;;;;21.30;52.70;;;;;;5113678;27;20264;-63
2023/07/25 04:16:05;;;;;;;12.93;2.90;;;25.50;42.80;;;;;;5111783;28;20458;-66
2023/07/25 04:18:33;;;;;;;3.20;1.60;;;25.20;45.60;;;;;;5111699;28;20031;-64
2023/07/25 04:21:00;;;;;;;3.25;1.75;;;24.60;42.90;;;;;;5034350;27;20066;-60
2023/07/25 04:23:27;;;;;;;4.05;1.75;;;24.50;41.50;;;;;;5048440;28;20030;-59
2023/07/25 04:25:55;;;;;;;5.70;2.28;;;24.40;42.40;;;;;;5048592;28;20461;-60
2023/07/25 04:28:22;;;;;;;5.63;1.90;;;24.30;42.80;;;;;;5045876;28;20048;-60
2023/07/25 04:30:49;;;;;;;4.68;2.42;;;24.10;43.20;;;;;;5039974;28;20017;-61
2023/07/25 04:34:08;;;;;;;4.38;1.70;;;23.90;43.00;;;;;;5083677;27;20426;-59
2023/07/25 04:36:36;;;;;;;3.05;2.03;;;23.90;42.40;;;;;;5092626;28;20032;-60
2023/07/25 04:39:03;;;;;;;3.13;1.70;;;24.10;42.40;;;;;;5091617;28;20028;-61
2023/07/25 04:41:30;;;;;;;2.20;1.50;;;24.60;42.30;;;;;;5092684;28;20392;-60
2023/07/25 04:44:00;;;;;;;2.80;1.77;;;24.70;42.50;;;;;;5091635;28;20145;-60
2023/07/25 04:46:29;;;;;;;3.33;1.88;;;24.70;40.20;;;;;;5090541;28;20040;-59
2023/07/25 04:48:57;;;;;;;4.63;1.70;;;24.40;44.90;;;;;;5091958;28;20107;-59
2023/07/25 04:51:25;;;;;;;5.18;2.00;;;23.70;48.10;;;;;;5092004;28;20107;-60
2023/07/25 04:53:52;;;;;;;5.40;1.70;;;23.60;48.30;;;;;;5091965;28;20206;-60
2023/07/25 04:56:19;;;;;;;3.30;1.80;;;23.40;49.50;;;;;;5091063;28;20078;-59
2023/07/25 04:58:47;;;;;;;3.20;2.00;;;23.20;48.60;;;;;;5092265;28;20103;-61
2023/07/25 05:01:14;;;;;;;5.10;2.10;;;22.90;50.00;;;;;;5090690;28;20021;-60
2023/07/25 05:03:42;;;;;;;5.13;2.20;;;22.10;51.20;;;;;;5090282;28;20339;-60
2023/07/25 05:06:11;;;;;;;5.97;2.38;;;22.10;51.00;;;;;;5090451;28;20111;-60
2023/07/25 05:08:38;;;;;;;4.78;2.35;;;22.30;51.00;;;;;;5090659;28;20335;-60
2023/07/25 05:11:06;;;;;;;4.45;2.08;;;22.10;51.40;;;;;;5091691;28;20399;-61
2023/07/25 05:13:33;;;;;;;4.10;1.77;;;21.90;51.10;;;;;;5091562;28;20069;-60
2023/07/25 05:16:01;;;;;;;4.88;1.80;;;22.20;50.60;;;;;;5091358;28;20347;-61
2023/07/25 05:18:28;;;;;;;5.00;1.80;;;21.60;52.00;;;;;;5090811;28;20021;-61
2023/07/25 05:20:56;;;;;;;2.72;1.65;;;21.30;52.80;;;;;;5090551;28;20454;-60
2023/07/25 05:23:23;;;;;;;3.83;2.22;;;20.70;53.30;;;;;;5091640;28;20024;-60
2023/07/25 05:25:51;;;;;;;4.55;2.20;;;20.30;54.70;;;;;;5089910;28;20386;-60
2023/07/25 05:28:19;;;;;;;3.97;2.05;;;20.10;55.60;;;;;;5090191;28;20036;-59
2023/07/25 05:30:47;;;;;;;5.57;2.15;;;19.80;55.30;;;;;;5090295;28;20024;-60
2023/07/25 05:33:14;;;;;;;4.65;1.83;;;19.60;56.70;;;;;;5089930;28;20068;-60
2023/07/25 05:35:42;;;;;;;5.70;2.40;;;19.60;56.50;;;;;;5090167;28;20028;-59
2023/07/25 05:38:09;;;;;;;4.35;1.85;;;19.90;56.30;;;;;;5091264;28;20044;-60
2023/07/25 05:40:37;;;;;;;5.88;2.20;;;19.80;55.70;;;;;;5091172;28;20103;-59
2023/07/25 05:43:04;;;;;;;3.30;1.98;;;19.60;56.60;;;;;;5090147;28;20605;-60
2023/07/25 05:45:32;;;;;;;3.22;1.80;;;20.00;55.50;;;;;;5076279;28;20021;-60
2023/07/25 05:47:59;;;;;;;3.58;2.20;;;20.40;54.60;;;;;;5077650;28;20107;-62
2023/07/25 05:50:27;;;;;;;5.35;2.30;;;21.00;53.20;;;;;;5077515;28;20025;-63
2023/07/25 05:52:55;;;;;;;3.58;2.08;;;21.20;52.30;;;;;;5076649;28;20075;-63
2023/07/25 05:55:22;;;;;;;4.00;1.92;;;21.40;51.50;;;;;;5076242;28;20055;-62
2023/07/25 05:57:50;;;;;;;2.83;1.70;;;21.80;51.10;;;;;;5077283;28;20332;-63
2023/07/25 06:00:18;;;;;;;2.85;2.15;;;22.10;50.30;;;;;;5077474;28;20021;-63
2023/07/25 06:02:46;;;;;;;4.28;2.17;;;21.70;53.30;;;;;;5077335;28;20058;-63
2023/07/25 06:05:13;;;;;;;5.18;2.13;;;20.80;56.30;;;;;;5075700;28;20024;-66
2023/07/25 06:07:41;;;;;;;7.28;2.22;;;20.10;58.70;;;;;;5076296;28;20067;-65
2023/07/25 06:10:08;;;;;;;4.72;2.00;;;19.60;60.10;;;;;;5075521;28;20065;-64
2023/07/25 06:12:36;;;;;;;3.20;2.10;;;19.30;60.80;;;;;;5064133;28;20034;-63
2023/07/25 06:15:04;;;;;;;5.68;2.58;;;19.00;61.70;;;;;;5076661;28;20052;-63
2023/07/25 06:17:31;;;;;;;7.35;2.47;;;19.10;62.00;;;;;;5077210;28;20021;-65
2023/07/25 06:19:58;;;;;;;4.95;2.10;;;18.90;62.80;;;;;;5076811;28;20439;-63
2023/07/25 06:22:26;;;;;;;6.47;2.90;;;18.60;63.70;;;;;;5076542;28;20458;-63
2023/07/25 06:24:53;;;;;;;6.10;2.20;;;18.40;64.00;;;;;;5076309;28;20489;-64
2023/07/25 06:27:20;;;;;;;4.03;2.30;;;18.20;64.30;;;;;;5076983;28;20465;-63
2023/07/25 06:29:48;;;;;;;5.78;2.08;;;18.10;64.70;;;;;;5077144;28;20037;-62
2023/07/25 06:32:15;;;;;;;5.15;2.53;;;17.90;65.20;;;;;;5076577;28;20115;-62
2023/07/25 06:34:42;;;;;;;4.63;2.53;;;17.70;66.00;;;;;;5076904;28;20457;-62
2023/07/25 06:37:10;;;;;;;5.88;2.72;;;17.50;66.60;;;;;;5075481;28;20024;-63
2023/07/25 06:39:37;;;;;;;4.93;2.60;;;17.50;66.90;;;;;;5075216;28;20028;-64
2023/07/25 06:42:05;;;;;;;5.78;2.63;;;17.40;67.20;;;;;;5075116;28;20028;-64
2023/07/25 06:44:32;;;;;;;4.93;2.80;;;17.40;67.40;;;;;;5076729;28;20063;-64
2023/07/25 06:47:00;;;;;;;5.28;2.90;;;17.40;67.50;;;;;;5076185;28;20120;-64
2023/07/25 06:49:27;;;;;;;5.75;3.05;;;17.30;68.30;;;;;;5075440;28;20032;-64
2023/07/25 06:52:00;;;;;;;6.38;2.97;;;17.20;68.60;;;;;;5076318;28;20070;-64
2023/07/25 06:54:28;;;;;;;3.75;2.75;;;17.10;68.80;;;;;;5075285;28;20017;-65
2023/07/25 06:56:55;;;;;;;6.63;2.97;;;17.00;69.20;;;;;;5074188;28;20074;-65
2023/07/25 06:59:23;;;;;;;5.25;2.40;;;17.00;69.70;;;;;;5076307;28;20052;-65
2023/07/25 07:01:50;;;;;;;3.28;2.30;;;16.90;70.00;;;;;;5075168;28;20103;-64
2023/07/25 07:04:18;;;;;;;5.25;2.47;;;16.80;70.30;;;;;;5076177;28;20403;-64
2023/07/25 07:06:45;;;;;;;8.43;3.00;;;16.70;70.40;;;;;;5074997;28;20021;-63
2023/07/25 07:09:13;;;;;;;5.65;2.50;;;16.60;70.60;;;;;;5075120;28;20043;-62
2023/07/25 07:11:41;;;;;;;5.65;2.63;;;16.60;71.00;;;;;;5074425;28;20358;-63
2023/07/25 07:14:09;;;;;;;5.32;2.90;;;16.50;71.20;;;;;;5074989;28;20016;-64
2023/07/25 07:16:37;;;;;;;4.78;2.63;;;16.50;71.30;;;;;;5075921;28;20048;-64
2023/07/25 07:19:05;;;;;;;5.30;2.80;;;16.40;71.40;;;;;;5075880;28;20016;-64
2023/07/25 07:21:32;;;;;;;5.43;2.90;;;16.30;71.80;;;;;;5074432;28;20069;-65
2023/07/25 07:24:00;;;;;;;5.32;3.00;;;16.20;72.20;;;;;;5074773;28;20085;-64
2023/07/25 07:26:27;;;;;;;6.53;3.22;;;16.10;72.40;;;;;;5074534;28;20028;-64
2023/07/25 07:28:54;;;;;;;5.82;2.92;;;16.10;72.60;;;;;;5075638;28;20025;-64
2023/07/25 07:31:24;;;;;;;5.78;2.83;;;16.10;72.90;;;;;;5074525;28;20346;-65
2023/07/25 07:33:52;;;;;;;5.75;3.33;;;16.00;72.90;;;;;;5074211;28;20059;-64
2023/07/25 07:36:20;;;;;;;8.32;3.35;;;16.00;73.20;;;;;;5057856;28;20032;-63
2023/07/25 07:38:47;;;;;;;4.90;3.28;;;15.90;73.20;;;;;;5075583;28;20021;-63
2023/07/25 07:41:14;;;;;;;7.85;3.50;;;15.90;73.50;;;;;;5073975;28;20036;-64
2023/07/25 07:43:42;;;;;;;6.35;3.42;;;15.80;73.80;;;;;;5075367;28;20350;-64
2023/07/25 07:46:09;;;;;;;6.63;3.50;;;15.70;73.70;;;;;;5074290;28;20453;-63
2023/07/25 07:48:37;;;;;;;6.20;3.42;;;15.50;74.30;;;;;;5074300;28;20436;-63
2023/07/25 07:51:04;;;;;;;6.00;3.60;;;15.50;74.40;;;;;;5075354;28;20074;-63
2023/07/25 07:53:31;;;;;;;6.38;3.58;;;15.50;74.50;;;;;;5075277;28;20048;-64
2023/07/25 07:56:04;;;;;;;5.90;3.10;;;15.50;74.60;;;;;;5075038;28;20016;-63
2023/07/25 07:58:32;;;;;;;5.25;2.88;;;15.40;74.30;;;;;;5075271;28;20466;-64
2023/07/25 08:00:59;;;;;;;8.77;4.05;;;15.30;74.70;;;;;;5075252;28;20074;-64
2023/07/25 08:03:27;;;;;;;7.85;4.45;;;15.10;75.10;;;;;;5074187;28;20031;-65
2023/07/25 08:05:57;;;;;;;9.70;4.30;;;15.00;75.80;;;;;;5075237;28;20067;-63
2023/07/25 08:08:25;;;;;;;6.45;4.22;;;14.70;76.60;;;;;;5074861;28;20016;-64
2023/07/25 08:10:52;;;;;;;7.93;5.03;;;14.60;77.10;;;;;;5074002;28;20119;-63
2023/07/25 08:13:19;;;;;;;8.02;4.60;;;14.40;77.60;;;;;;5075076;28;20137;-63
2023/07/25 08:15:47;;;;;;;10.38;5.25;;;14.40;77.50;;;;;;5074138;28;20020;-63
2023/07/25 08:18:15;;;;;;;7.88;4.53;;;14.30;77.70;;;;;;5075177;28;20048;-65
2023/07/25 08:20:44;;;;;;;11.05;4.82;;;14.30;77.90;;;;;;5075050;28;20016;-65
2023/07/25 08:23:12;;;;;;;7.78;4.55;;;14.30;77.40;;;;;;5074018;28;20036;-65
2023/07/25 08:25:40;;;;;;;8.77;5.13;;;14.20;77.30;;;;;;5073831;28;20396;-66
2023/07/25 08:28:07;;;;;;;8.55;4.53;;;14.10;77.70;;;;;;5073835;28;20115;-64
2023/07/25 08:30:35;;;;;;;7.50;4.60;;;14.00;77.70;;;;;;5073989;28;20050;-65
2023/07/25 08:33:02;;;;;;;6.97;4.38;;;14.00;78.10;;;;;;5075676;28;20044;-64
2023/07/25 08:35:30;;;;;;;5.25;3.78;;;13.90;77.80;;;;;;5074986;28;20450;-64
2023/07/25 08:37:57;;;;;;;7.68;4.38;;;13.80;77.80;;;;;;5076346;28;20025;-62
2023/07/25 08:40:25;;;;;;;7.72;3.80;;;13.70;77.90;;;;;;5075029;28;20025;-63
2023/07/25 08:42:56;;;;;;;5.82;3.22;;;13.60;78.20;;;;;;5075379;28;20039;-63
2023/07/25 08:45:25;;;;;;;6.70;3.15;;;13.60;78.70;;;;;;5077543;28;20021;-64
2023/07/25 08:47:56;;;;;;;5.65;3.63;;;13.50;79.40;;;;;;5076608;28;20126;-63
2023/07/25 08:50:25;;;;;;;6.82;4.45;;;13.50;79.70;;;;;;5074603;28;20124;-63
2023/07/25 08:52:55;;;;;;;10.32;5.45;;;13.30;80.10;;;;;;5074782;28;20081;-63
2023/07/25 08:55:23;;;;;;;10.95;5.00;;;13.20;80.60;;;;;;5074941;28;20044;-63
2023/07/25 08:57:51;;;;;;;7.57;4.25;;;13.10;81.00;;;;;;5074453;28;20052;-63
2023/07/25 09:00:18;;;;;;;8.18;4.50;;;13.00;81.00;;;;;;5074716;28;20036;-64
2023/07/25 09:02:46;;;;;;;10.90;4.60;;;13.00;81.30;;;;;;5073650;28;20049;-64
2023/07/25 09:05:14;;;;;;;7.13;4.55;;;12.80;81.20;;;;;;5073527;28;20158;-61
2023/07/25 09:07:42;;;;;;;11.05;4.05;;;12.80;80.90;;;;;;5073521;28;20021;-60
2023/07/25 09:10:11;;;;;;;9.45;5.13;;;12.80;81.20;;;;;;5073618;28;20029;-60
2023/07/25 09:12:39;;;;;;;8.20;5.50;;;12.60;81.50;;;;;;5073457;28;20075;-60
2023/07/25 09:15:07;;;;;;;7.38;5.35;;;12.50;81.10;;;;;;5074616;28;20471;-60
2023/07/25 09:17:34;;;;;;;12.20;6.82;;;12.50;81.20;;;;;;5073446;28;20051;-61
2023/07/25 09:20:01;;;;;;;12.73;7.78;;;12.50;81.30;;;;;;5076856;28;20025;-60
2023/07/25 09:22:31;;;;;;;17.58;8.52;;;12.50;81.40;;;;;;5075819;28;20029;-60
2023/07/25 09:24:59;;;;;;;20.15;9.27;;;12.40;81.50;;;;;;5077231;28;20060;-61
2023/07/25 09:27:27;;;;;;;16.45;7.65;;;12.50;81.60;;;;;;5060395;28;20167;-59
2023/07/25 09:29:56;;;;;;;13.80;6.80;;;12.40;81.50;;;;;;5078105;28;20031;-60
2023/07/25 09:32:28;;;;;;;10.25;5.93;;;12.30;81.70;;;;;;5077846;28;20040;-60
2023/07/25 09:35:08;;;;;;;12.52;6.78;;;12.20;81.80;;;;;;5060772;28;20028;-60
2023/07/25 09:37:36;;;;;;;10.07;6.40;;;12.10;82.60;;;;;;5077913;28;20452;-60
2023/07/25 09:40:09;;;;;;;11.43;6.82;;;12.00;82.70;;;;;;5076992;28;20110;-60
2023/07/25 09:42:41;;;;;;;13.73;7.40;;;12.00;82.50;;;;;;5060646;28;20021;-59
2023/07/25 09:45:11;;;;;;;9.13;5.95;;;12.00;82.50;;;;;;5060444;28;20032;-61
2023/07/25 09:47:38;;;;;;;8.57;5.68;;;11.90;82.30;;;;;;5060288;28;20032;-60
2023/07/25 09:50:07;;;;;;;9.00;5.10;;;11.90;82.20;;;;;;5077740;28;20450;-61
2023/07/25 09:52:42;;;;;;;7.20;5.07;;;11.80;82.90;;;;;;5060341;28;20115;-59
2023/07/25 09:55:10;;;;;;;9.23;5.32;;;11.70;83.00;;;;;;5060350;28;20417;-59
2023/07/25 09:57:38;;;;;;;7.95;5.20;;;11.60;83.40;;;;;;5076463;28;20466;-59
2023/07/25 10:00:06;;;;;;;8.85;5.28;;;11.50;83.50;;;;;;5076642;28;20028;-60
2023/07/25 10:02:33;;;;;;;7.38;5.25;;;11.50;83.90;;;;;;5076516;28;20021;-61
2023/07/25 10:05:01;;;;;;;9.82;5.45;;;11.40;83.80;;;;;;5076518;28;20070;-60
2023/07/25 10:07:32;;;;;;;8.98;5.43;;;11.30;83.70;;;;;;5076293;28;20028;-60
2023/07/25 10:10:03;;;;;;;8.88;5.90;;;11.30;84.40;;;;;;5059962;28;20028;-60
2023/07/25 10:12:31;;;;;;;21.33;18.08;;;11.30;84.50;;;;;;5060079;28;20055;-61
2023/07/25 10:14:58;;;;;;;18.85;15.98;;;11.20;84.60;;;;;;5076363;28;20020;-61
2023/07/25 10:17:26;;;;;;;11.77;9.05;;;11.10;84.60;;;;;;5071034;28;20044;-61
2023/07/25 10:19:55;;;;;;;10.43;7.82;;;11.10;84.90;;;;;;5046907;28;20462;-61
2023/07/25 10:22:42;;;;;;;11.55;7.60;;;11.00;84.90;;;;;;5046634;28;20021;-60
2023/07/25 10:25:17;;;;;;;9.05;7.10;;;11.00;85.00;;;;;;5046539;28;20025;-60
2023/07/25 10:27:44;;;;;;;12.32;7.57;;;11.00;85.10;;;;;;5046602;28;20079;-59
2023/07/25 10:30:25;;;;;;;13.63;8.23;;;11.00;85.30;;;;;;5046577;28;20036;-60
2023/07/25 10:32:56;;;;;;;12.57;8.13;;;11.00;85.00;;;;;;5055788;28;20052;-60
2023/07/25 10:35:46;;;;;;;9.57;6.78;;;10.90;84.80;;;;;;5036057;28;20443;-59
2023/07/25 10:38:32;;;;;;;9.60;6.78;;;11.00;84.70;;;;;;5052694;28;20029;-60
2023/07/25 10:41:09;;;;;;;12.27;7.00;;;10.90;84.80;;;;;;5055259;28;20029;-59
2023/07/25 10:43:46;;;;;;;9.95;6.47;;;10.80;85.00;;;;;;5053360;28;20021;-59
2023/07/25 10:46:33;;;;;;;9.13;6.65;;;10.70;84.90;;;;;;5055959;28;20028;-59
2023/07/25 10:49:02;;;;;;;9.35;6.65;;;10.60;85.30;;;;;;5043785;28;20033;-60
2023/07/25 10:51:49;;;;;;;9.98;6.68;;;10.60;85.40;;;;;;5045137;28;20032;-60
2023/07/25 10:54:17;;;;;;;11.07;6.50;;;10.50;85.10;;;;;;5042510;28;20059;-60
2023/07/25 10:57:07;;;;;;;8.93;6.35;;;10.50;85.10;;;;;;5047648;28;20017;-60
2023/07/25 10:59:54;;;;;;;8.55;6.70;;;10.40;85.20;;;;;;5045939;28;20525;-60
2023/07/25 11:02:43;;;;;;;9.50;5.90;;;10.40;85.40;;;;;;5044779;28;20035;-60
2023/07/25 11:05:31;;;;;;;9.63;6.90;;;10.30;85.70;;;;;;5044874;28;20061;-60
2023/07/25 11:07:58;;;;;;;10.57;7.18;;;10.30;85.70;;;;;;5037724;28;20063;-60
2023/07/25 11:10:27;;;;;;;11.32;7.30;;;10.20;85.80;;;;;;5035363;28;20036;-60
2023/07/25 11:12:59;;;;;;;10.93;7.50;;;10.20;85.40;;;;;;5058157;28;20063;-61
2023/07/25 11:15:27;;;;;;;9.57;6.82;;;10.20;85.40;;;;;;5075071;28;20461;-59
2023/07/25 11:17:55;;;;;;;10.52;6.85;;;10.10;85.50;;;;;;5076038;28;20056;-60
2023/07/25 11:20:23;;;;;;;10.95;7.38;;;10.20;85.30;;;;;;5075022;28;20021;-61
2023/07/25 11:22:53;;;;;;;14.43;8.82;;;10.10;85.50;;;;;;5075072;28;20029;-61
2023/07/25 11:25:22;;;;;;;15.38;8.15;;;10.00;85.60;;;;;;5075984;28;20052;-60
2023/07/25 11:27:51;;;;;;;11.70;7.72;;;10.10;85.80;;;;;;5074292;28;20389;-63
2023/07/25 11:30:20;;;;;;;11.95;7.88;;;10.00;85.60;;;;;;5075891;28;20081;-63
2023/07/25 11:32:55;;;;;;;12.20;6.97;;;10.00;85.50;;;;;;5074446;28;20060;-63
2023/07/25 11:35:24;;;;;;;10.65;7.53;;;10.00;85.40;;;;;;5074817;28;20013;-63
2023/07/25 11:38:02;;;;;;;13.38;8.23;;;10.00;85.10;;;;;;5075619;28;20021;-65
2023/07/25 11:40:30;;;;;;;12.75;8.02;;;10.00;85.20;;;;;;5074645;28;20031;-62
2023/07/25 11:42:58;;;;;;;14.75;9.50;;;9.80;85.30;;;;;;5074046;28;20235;-62
2023/07/25 11:45:25;;;;;;;15.23;10.00;;;9.70;85.60;;;;;;5075679;28;20020;-62
2023/07/25 11:47:54;;;;;;;13.77;9.25;;;9.60;85.70;;;;;;5074776;28;20434;-63
2023/07/25 11:50:22;;;;;;;13.40;8.35;;;9.60;85.70;;;;;;5074637;28;20048;-63
2023/07/25 11:52:50;;;;;;;12.93;8.77;;;9.60;85.70;;;;;;5074479;28;20035;-63
2023/07/25 11:55:17;;;;;;;13.80;9.40;;;9.60;86.00;;;;;;5075544;28;20055;-63
2023/07/25 11:57:45;;;;;;;12.98;8.93;;;9.60;85.40;;;;;;5074163;28;20063;-62
2023/07/25 12:00:15;;;;;;;13.82;8.82;;;9.60;85.40;;;;;;5074406;28;20020;-63
2023/07/25 12:02:43;;;;;;;12.80;8.20;;;9.60;85.60;;;;;;5074400;28;20465;-63
2023/07/25 12:05:26;;;;;;;14.38;9.13;;;9.50;85.40;;;;;;5074167;28;20030;-63
2023/07/25 12:08:05;;;;;;;14.57;9.05;;;9.60;85.30;;;;;;5074279;28;20085;-62
2023/07/25 12:10:35;;;;;;;13.75;9.13;;;9.50;85.40;;;;;;5074239;28;20029;-62
2023/07/25 12:13:08;;;;;;;14.98;9.55;;;9.50;85.40;;;;;;5075004;28;20020;-62
2023/07/25 12:15:49;;;;;;;18.10;11.55;;;9.50;85.90;;;;;;5074287;28;20024;-63
2023/07/25 12:18:30;;;;;;;19.75;11.50;;;9.50;86.00;;;;;;5074016;28;20025;-63
2023/07/25 12:21:03;;;;;;;23.50;13.40;;;9.40;86.20;;;;;;5074207;28;20021;-61
2023/07/25 12:23:33;;;;;;;22.35;13.57;;;9.30;86.20;;;;;;5057558;28;20025;-62
2023/07/25 12:26:02;;;;;;;19.77;12.18;;;9.30;86.70;;;;;;5075079;28;20115;-61
2023/07/25 12:28:43;;;;;;;23.10;12.98;;;9.30;86.30;;;;;;5075045;28;20024;-62
2023/07/25 12:31:11;;;;;;;21.85;12.73;;;9.40;86.00;;;;;;5074090;28;20031;-63
2023/07/25 12:33:41;;;;;;;24.55;15.45;;;9.20;85.90;;;;;;5073992;28;20076;-63
2023/07/25 12:36:08;;;;;;;24.35;15.52;;;9.20;86.20;;;;;;5074874;28;20029;-62
2023/07/25 12:38:36;;;;;;;22.35;14.65;;;9.10;86.60;;;;;;5074844;28;20021;-63
2023/07/25 12:41:04;;;;;;;29.88;19.13;;;9.10;86.60;;;;;;5073841;28;20025;-62
2023/07/25 12:43:31;;;;;;;27.60;15.75;;;9.00;86.80;;;;;;5073617;28;20024;-61
2023/07/25 12:45:59;;;;;;;22.08;13.25;;;9.00;86.80;;;;;;5074990;28;20020;-63
2023/07/25 12:48:26;;;;;;;22.70;14.48;;;8.90;86.90;;;;;;5074963;28;20024;-63
2023/07/25 12:50:54;;;;;;;18.95;11.50;;;8.90;86.50;;;;;;5073879;28;20024;-63
2023/07/25 12:53:21;;;;;;;15.23;11.18;;;9.00;86.70;;;;;;5074843;28;20024;-63
2023/07/25 12:55:49;;;;;;;17.63;10.60;;;9.00;86.80;;;;;;5077673;28;20036;-66
2023/07/25 12:58:16;;;;;;;15.10;9.52;;;8.90;86.90;;;;;;5077687;28;20021;-65
2023/07/25 13:00:44;;;;;;;14.40;9.65;;;8.90;86.90;;;;;;5078832;28;20017;-66
2023/07/25 13:03:12;;;;;;;13.60;8.77;;;8.90;86.90;;;;;;5077896;28;20020;-65
2023/07/25 13:05:40;;;;;;;15.80;8.90;;;8.80;86.90;;;;;;5077667;28;20082;-64
2023/07/25 13:08:07;;;;;;;14.95;8.90;;;8.80;86.70;;;;;;5078578;28;20021;-65
2023/07/25 13:10:35;;;;;;;13.38;8.93;;;8.80;86.80;;;;;;5077575;28;20029;-65
2023/07/25 13:13:02;;;;;;;12.77;8.60;;;8.70;86.70;;;;;;5077403;28;20028;-65
2023/07/25 13:15:30;;;;;;;13.90;8.93;;;8.80;86.60;;;;;;5077502;28;20052;-66
2023/07/25 13:17:58;;;;;;;12.32;8.32;;;8.70;86.30;;;;;;5078407;28;20021;-66
2023/07/25 13:20:26;;;;;;;13.80;9.57;;;8.70;86.40;;;;;;5077391;28;20112;-66
2023/07/25 13:22:56;;;;;;;14.25;8.68;;;8.70;85.90;;;;;;5060698;28;20387;-66
2023/07/25 13:25:24;;;;;;;14.57;8.73;;;8.70;86.10;;;;;;5077091;28;20036;-66
2023/07/25 13:27:51;;;;;;;16.80;10.30;;;8.60;86.10;;;;;;5078217;28;20173;-66
2023/07/25 13:30:19;;;;;;;17.45;10.43;;;8.60;86.40;;;;;;5077248;28;20029;-65
2023/07/25 13:32:46;;;;;;;19.98;10.13;;;8.50;86.60;;;;;;5076982;28;20037;-64
2023/07/25 13:35:14;;;;;;;13.77;9.05;;;8.50;86.50;;;;;;5077088;28;20074;-64
2023/07/25 13:37:41;;;;;;;13.85;9.07;;;8.50;86.40;;;;;;5076935;28;20115;-64
2023/07/25 13:40:09;;;;;;;19.35;11.10;;;8.50;86.30;;;;;;5077088;28;20122;-64
2023/07/25 13:42:37;;;;;;;17.30;10.27;;;8.50;85.80;;;;;;5077631;28;20024;-65
2023/07/25 13:45:05;;;;;;;17.08;11.13;;;8.50;85.60;;;;;;5077969;28;20032;-65
2023/07/25 13:47:32;;;;;;;19.17;10.98;;;8.50;86.20;;;;;;5076830;28;20020;-65
2023/07/25 13:50:03;;;;;;;17.83;11.20;;;8.40;86.20;;;;;;5076860;28;20366;-65
2023/07/25 13:52:31;;;;;;;18.88;10.38;;;8.30;86.40;;;;;;5076699;28;20446;-64
2023/07/25 13:54:58;;;;;;;18.67;11.02;;;8.30;86.50;;;;;;5076800;28;20059;-64
2023/07/25 13:57:25;;;;;;;17.38;10.35;;;8.20;86.60;;;;;;5076601;28;20350;-65
2023/07/25 13:59:53;;;;;;;19.02;11.27;;;8.20;86.80;;;;;;5076672;28;20024;-65
2023/07/25 14:02:20;;;;;;;19.75;10.90;;;8.20;87.00;;;;;;5076664;28;20081;-65
2023/07/25 14:04:48;;;;;;;20.33;11.88;;;8.20;87.10;;;;;;5076155;28;20032;-65
2023/07/25 14:07:16;;;;;;;19.23;11.20;;;8.30;86.30;;;;;;5076411;28;20086;-65
2023/07/25 14:09:43;;;;;;;19.08;11.15;;;8.30;85.90;;;;;;5076453;28;20025;-65
2023/07/25 14:12:11;;;;;;;24.10;12.00;;;8.20;85.50;;;;;;5076324;28;20451;-65
2023/07/25 14:14:38;;;;;;;21.45;11.90;;;8.30;85.00;;;;;;5076383;28;20107;-64
2023/07/25 14:17:06;;;;;;;18.58;11.77;;;8.30;85.60;;;;;;5076232;28;20016;-65
2023/07/25 14:19:34;;;;;;;19.92;12.68;;;8.20;85.90;;;;;;5076240;28;20020;-66
2023/07/25 14:22:01;;;;;;;23.08;13.35;;;8.10;86.10;;;;;;5076170;28;20064;-65
2023/07/25 14:24:29;;;;;;;19.48;10.95;;;8.00;86.60;;;;;;5077196;28;20343;-65
2023/07/25 14:26:57;;;;;;;18.48;11.88;;;8.00;86.70;;;;;;5076088;28;20067;-66
2023/07/25 14:29:25;;;;;;;19.40;12.07;;;8.00;86.40;;;;;;5077190;28;20351;-66
2023/07/25 14:31:52;;;;;;;16.80;9.73;;;8.00;86.60;;;;;;5075917;28;20035;-65
2023/07/25 14:34:20;;;;;;;17.58;10.90;;;7.90;86.60;;;;;;5075959;28;20029;-65
2023/07/25 14:36:47;;;;;;;20.70;12.23;;;7.90;86.50;;;;;;5075978;28;20500;-66
2023/07/25 14:39:14;;;;;;;16.13;10.57;;;8.00;85.40;;;;;;5075846;28;20028;-66
2023/07/25 14:41:42;;;;;;;18.27;11.95;;;8.00;86.00;;;;;;5075908;28;20036;-66
2023/07/25 14:44:09;;;;;;;21.77;11.73;;;7.90;86.30;;;;;;5075720;28;20024;-66
2023/07/25 14:46:36;;;;;;;17.63;11.68;;;7.90;86.60;;;;;;5075725;28;20024;-66
2023/07/25 14:49:04;;;;;;;18.10;11.35;;;7.80;86.90;;;;;;5075692;28;20034;-66
2023/07/25 14:51:31;;;;;;;21.70;12.10;;;7.70;86.90;;;;;;5075663;28;20028;-64
2023/07/25 14:54:00;;;;;;;19.63;11.65;;;7.60;86.90;;;;;;5075573;28;20024;-65
2023/07/25 14:56:27;;;;;;;16.55;10.32;;;7.60;86.90;;;;;;5075428;28;20183;-65
2023/07/25 14:58:55;;;;;;;20.85;12.10;;;7.50;87.10;;;;;;5075597;28;20028;-65
2023/07/25 15:01:22;;;;;;;18.20;10.32;;;7.60;87.70;;;;;;5075487;28;20040;-65
2023/07/25 15:03:50;;;;;;;23.63;14.00;;;7.60;87.20;;;;;;5075448;28;20101;-65
2023/07/25 15:06:17;;;;;;;23.38;14.80;;;7.60;87.50;;;;;;5075346;28;20439;-65
2023/07/25 15:08:47;;;;;;;20.27;13.43;;;7.60;87.40;;;;;;5076018;28;20378;-64
2023/07/25 15:11:15;;;;;;;22.73;12.63;;;7.60;87.50;;;;;;5075370;28;20032;-65
2023/07/25 15:13:42;;;;;;;15.77;10.60;;;7.50;87.60;;;;;;5075229;28;20138;-65
2023/07/25 15:16:10;;;;;;;18.48;11.43;;;7.50;87.50;;;;;;5074754;28;20029;-66
2023/07/25 15:18:37;;;;;;;19.00;11.52;;;7.50;87.60;;;;;;5074806;28;20081;-66
2023/07/25 15:21:05;;;;;;;16.45;10.88;;;7.40;87.60;;;;;;5075109;28;20024;-66
2023/07/25 15:23:32;;;;;;;19.85;11.95;;;7.40;87.70;;;;;;5075049;28;20024;-65
2023/07/25 15:25:59;;;;;;;17.42;11.25;;;7.40;87.80;;;;;;5076004;28;20031;-66
2023/07/25 15:28:28;;;;;;;19.42;11.50;;;7.40;88.10;;;;;;5075809;28;20355;-66
2023/07/25 15:30:56;;;;;;;17.63;11.00;;;7.30;88.00;;;;;;5066573;28;20067;-65
2023/07/25 15:33:23;;;;;;;18.15;11.75;;;7.30;88.10;;;;;;5068620;28;20095;-65
2023/07/25 15:35:51;;;;;;;19.90;11.40;;;7.30;88.10;;;;;;5075851;28;20017;-65
2023/07/25 15:38:18;;;;;;;16.35;11.50;;;7.30;88.10;;;;;;5075807;28;20020;-63
2023/07/25 15:40:45;;;;;;;19.05;12.10;;;7.30;88.00;;;;;;5074864;28;20036;-66
2023/07/25 15:43:12;;;;;;;19.23;11.60;;;7.30;88.00;;;;;;5074714;28;20462;-66
2023/07/25 15:45:40;;;;;;;16.50;11.98;;;7.30;88.10;;;;;;5075523;28;20103;-66
2023/07/25 15:48:07;;;;;;;16.25;11.07;;;7.20;88.00;;;;;;5074648;28;20362;-66
2023/07/25 15:50:34;;;;;;;18.10;11.10;;;7.20;88.10;;;;;;5074596;28;20025;-66
2023/07/25 15:53:02;;;;;;;19.13;11.93;;;7.20;88.10;;;;;;5074544;28;20033;-66
2023/07/25 15:55:29;;;;;;;14.77;9.32;;;7.20;88.00;;;;;;5075525;28;20016;-66
2023/07/25 15:57:57;;;;;;;15.45;9.48;;;7.20;88.00;;;;;;5074492;28;20103;-63
2023/07/25 16:00:24;;;;;;;15.30;10.38;;;7.10;87.40;;;;;;5066242;28;20017;-63
2023/07/25 16:02:52;;;;;;;16.35;10.40;;;7.20;87.50;;;;;;5054514;28;20028;-63
2023/07/25 16:05:19;;;;;;;15.68;10.00;;;7.20;86.90;;;;;;5055441;28;20083;-64
2023/07/25 16:07:46;;;;;;;16.50;10.38;;;7.10;86.40;;;;;;5054250;28;20090;-64
2023/07/25 16:10:14;;;;;;;20.13;10.98;;;7.10;86.40;;;;;;5054348;28;20025;-65
2023/07/25 16:12:41;;;;;;;15.25;10.65;;;7.10;86.80;;;;;;5055223;28;20044;-64
2023/07/25 16:15:09;;;;;;;13.25;9.57;;;7.00;87.00;;;;;;5055047;28;20443;-64
2023/07/25 16:17:37;;;;;;;13.30;8.52;;;7.00;87.10;;;;;;5054191;28;20035;-65
2023/07/25 16:20:05;;;;;;;12.68;9.10;;;7.00;87.30;;;;;;5055160;28;20028;-64
2023/07/25 16:22:33;;;;;;;15.57;10.40;;;7.00;87.30;;;;;;5054134;28;20033;-67
2023/07/25 16:25:00;;;;;;;16.73;10.43;;;7.10;86.80;;;;;;5054195;28;20068;-66
2023/07/25 16:27:27;;;;;;;15.05;9.30;;;7.00;86.40;;;;;;5054906;28;20910;-65
2023/07/25 16:29:55;;;;;;;15.20;9.60;;;7.00;86.60;;;;;;5054839;28;20060;-64
2023/07/25 16:32:22;;;;;;;18.58;10.70;;;7.00;86.70;;;;;;5053701;28;20150;-66
2023/07/25 16:34:50;;;;;;;14.32;9.52;;;7.00;86.90;;;;;;5055012;28;20079;-66
2023/07/25 16:37:17;;;;;;;16.23;9.80;;;6.90;87.10;;;;;;5053981;28;20028;-64
2023/07/25 16:39:44;;;;;;;13.82;8.80;;;6.90;87.00;;;;;;5054008;28;20029;-66
2023/07/25 16:42:13;;;;;;;11.48;8.55;;;6.80;87.00;;;;;;5053942;28;20021;-65
2023/07/25 16:44:40;;;;;;;12.77;8.48;;;6.70;86.90;;;;;;5053858;28;20048;-66
2023/07/25 16:47:08;;;;;;;14.38;9.10;;;6.70;87.00;;;;;;5054762;28;20017;-66
2023/07/25 16:49:35;;;;;;;12.80;8.30;;;6.70;86.90;;;;;;5054870;28;20028;-64
2023/07/25 16:52:02;;;;;;;16.00;8.98;;;6.70;87.10;;;;;;5054777;28;20020;-64
2023/07/25 16:54:30;;;;;;;13.60;8.40;;;6.60;87.40;;;;;;5054847;28;20025;-64
2023/07/25 16:56:57;;;;;;;13.18;8.48;;;6.60;87.30;;;;;;5053755;28;20021;-66
2023/07/25 16:59:24;;;;;;;14.25;9.48;;;6.60;87.50;;;;;;5054765;28;20017;-62
2023/07/25 17:01:52;;;;;;;13.55;9.23;;;6.60;87.50;;;;;;5054762;28;20029;-65
2023/07/25 17:04:19;;;;;;;15.27;9.50;;;6.60;87.50;;;;;;5054722;28;20043;-63